Accueil
METAR-TAF:

METAR-TAF

Aéroports :

Lifou, Nouvelle-Calédonie

Wanaham

latitude: 20-46S, longitude: 167-14E, altitude: 28 m

METAR: absent

Heure: 21:27 (10:27 UTC)

Prévision

Le bulletin a été fait il y a 16 heures et 8 minutes, à 18:19 UTC
Prévision valable du 20 à 18 UTC au 21 à 18 UTC
Vent 10 kt de est/sud-est
Visibilité 10 km ou plus
Nuages épars à une hauteur de 3000 ft
Temporairement
du 20 à 18 UTC au 20 à 24 UTC
Visibilité: 4000 m
Nuages fragmentés à une hauteur de 1400 ft
Quelques nuages à une hauteur de 2500 ft, Cumulus congestus.
averses de pluie

TAF: NWWL 201819Z 2018/2118 12010KT 9999 SCT030 TEMPO 2018/2024 4000 SHRA BKN014 FEW025TCU

Observations et prévisions météorologiques de plus de 4000 aéroports (messages METAR et TAF).

Les stations disponibles sont représentées par des disques jaunes et rouges sur la carte.

Passer la souris dessus pour voir le nom de la station.

Cliquer dessus pour voir les observations et prévisions météorologiques.

Pour changer de carte: cliquez sur les boutons verts avec une croix noire pour zoomer, sur le bouton vert avec un tiret pour effectuer un zoom arrière, ou sur les flèches vertes pour les cartes adjacentes.


METAR-TAF: